Time;durP1;ratioP1;P1;durP2;ratioP2;P2;SDS_P1;SDS_P2;PMS_P1;PMS_P2;Temp;Humidity;BMP_temperature;BMP_pressure;BME280_temperature;BME280_humidity;BME280_pressure;Samples;Min_cycle;Max_cycle;Signal;HPM_P1;HPM_P2
2021/09/18 00:01:36;;;;;;;;;;;;;;;16.60;84.82;92443.44;4850469;29;20053;-90
2021/09/18 00:04:34;;;;;;;;;;;;;;;;;;;;;
2021/09/18 00:07:47;;;;;;;26.27;10.90;;;;;;;16.43;85.45;92423.22;4843822;29;20050;-91
2021/09/18 00:10:52;;;;;;;25.55;10.85;;;;;;;16.30;85.53;92414.47;4829353;29;20450;-93
2021/09/18 00:14:20;;;;;;;30.77;11.48;;;;;;;16.29;85.76;92417.44;4815932;29;20064;-92
2021/09/18 00:17:30;;;;;;;31.27;10.27;;;;;;;16.17;85.67;92403.06;4829305;29;20145;-92
2021/09/18 00:20:35;;;;;;;23.17;10.48;;;;;;;16.47;86.55;92449.78;4813485;29;20064;-92
2021/09/18 00:23:28;;;;;;;;;;;;;;;;;;;;;
2021/09/18 00:27:02;;;;;;;26.58;11.02;;;;;;;16.29;86.53;92418.19;4837986;29;20058;-92
2021/09/18 00:33:27;;;;;;;;;;;;;;;;;;;;;
2021/09/18 00:43:59;;;;;;;23.85;10.63;;;;;;;16.37;86.05;92425.28;4849723;29;20068;-92
2021/09/18 00:50:11;;;;;;;27.23;10.75;;;;;;;16.19;85.71;92402.75;4880841;29;20049;-92
2021/09/18 00:53:01;;;;;;;29.50;12.83;;;;;;;16.25;86.13;92422.56;4849472;29;20061;-92
2021/09/18 00:56:15;;;;;;;20.52;10.48;;;;;;;16.48;86.76;92452.06;4866902;29;20299;-91
2021/09/18 01:02:20;;;;;;;25.52;10.50;;;;;;;16.15;87.36;92407.13;4871350;29;20053;-93
2021/09/18 01:16:07;;;;;;;;;;;;;;;;;;;;;
2021/09/18 01:19:16;;;;;;;;;;;;;;;;;;;;;
2021/09/18 01:22:47;;;;;;;24.55;10.38;;;;;;;16.21;87.73;92403.19;4860817;29;20504;-91
2021/09/18 01:25:52;;;;;;;21.00;10.70;;;;;;;16.28;87.87;92416.66;4844419;29;20049;-92
2021/09/18 01:28:50;;;;;;;27.63;11.80;;;;;;;16.19;87.82;92390.31;4831498;29;20086;-91
2021/09/18 01:32:22;;;;;;;22.30;11.70;;;;;;;16.19;87.41;92386.91;4845287;29;20053;-91
2021/09/18 01:35:07;;;;;;;;;;;;;;;;;;;;;
2021/09/18 01:38:01;;;;;;;;;;;;;;;;;;;;;
2021/09/18 01:41:14;;;;;;;;;;;;;;;;;;;;;
2021/09/18 01:47:23;;;;;;;;;;;;;;;;;;;;;
2021/09/18 01:57:58;;;;;;;30.30;12.45;;;;;;;16.09;88.53;92392.56;4880308;29;20068;-91
2021/09/18 02:01:14;;;;;;;32.08;13.18;;;;;;;16.14;88.29;92395.00;4835426;29;20061;-92
2021/09/18 02:04:18;;;;;;;27.42;11.55;;;;;;;16.42;87.84;92438.28;4861867;29;20067;-92
2021/09/18 02:07:15;;;;;;;31.42;12.65;;;;;;;16.06;87.83;92374.75;4846432;29;20061;-91
2021/09/18 02:16:43;;;;;;;25.60;13.07;;;;;;;16.27;87.99;92409.81;4851602;29;20052;-92
2021/09/18 02:19:41;;;;;;;24.77;12.23;;;;;;;16.17;87.94;92404.94;4853402;29;20049;-93
2021/09/18 02:29:41;;;;;;;24.60;13.77;;;;;;;16.37;88.30;92422.66;4876903;29;20048;-93
2021/09/18 02:32:16;;;;;;;32.25;13.82;;;;;;;16.10;88.21;92381.69;4837638;29;20189;-92
2021/09/18 02:35:24;;;;;;;26.42;13.07;;;;;;;16.21;88.74;92405.81;4851456;29;20056;-92
2021/09/18 02:38:25;;;;;;;27.38;12.73;;;;;;;16.42;88.77;92427.72;4865626;29;20059;-91
2021/09/18 02:47:54;;;;;;;;;;;;;;;;;;;;;
2021/09/18 03:01:18;;;;;;;30.73;13.90;;;;;;;16.13;92.29;92377.63;4858747;29;20053;-93
2021/09/18 03:04:14;;;;;;;26.10;13.52;;;;;;;16.18;92.28;92390.63;4862629;29;20049;-93
2021/09/18 03:07:14;;;;;;;;;;;;;;;;;;;;;
2021/09/18 03:13:38;;;;;;;;;;;;;;;;;;;;;
2021/09/18 03:16:28;;;;;;;28.80;13.15;;;;;;;15.87;92.96;92344.25;4845541;29;20049;-93
2021/09/18 03:19:09;;;;;;;34.72;14.20;;;;;;;16.05;93.59;92363.38;4832029;29;20049;-94
2021/09/18 03:22:18;;;;;;;31.13;15.02;;;;;;;15.86;94.00;92337.44;4843433;29;20151;-94
2021/09/18 03:25:34;;;;;;;;;;;;;;;;;;;;;
2021/09/18 03:28:13;;;;;;;33.75;15.35;;;;;;;15.86;94.53;92339.31;4861092;29;20049;-93
2021/09/18 03:31:09;;;;;;;;;;;;;;;;;;;;;
2021/09/18 03:37:27;;;;;;;33.15;15.25;;;;;;;15.89;95.17;92357.91;4822552;29;20061;-94
2021/09/18 03:40:38;;;;;;;30.65;13.68;;;;;;;15.79;96.21;92342.47;4846240;29;20061;-93
2021/09/18 03:43:47;;;;;;;32.78;13.93;;;;;;;15.71;96.18;92340.66;4861151;29;20076;-93
2021/09/18 03:47:02;;;;;;;28.38;14.05;;;;;;;16.06;96.06;92398.50;4881782;29;20061;-93
2021/09/18 03:50:20;;;;;;;;;;;;;;;;;;;;;
2021/09/18 03:56:59;;;;;;;;;;;;;;;;;;;;;
2021/09/18 03:59:42;;;;;;;36.47;16.55;;;;;;;15.64;95.97;92349.03;4862842;29;20500;-93
2021/09/18 04:02:26;;;;;;;29.77;15.60;;;;;;;15.75;95.77;92371.34;4833813;29;20057;-92
2021/09/18 04:05:29;;;;;;;31.98;15.80;;;;;;;15.95;96.61;92395.47;4845993;29;20294;-94
2021/09/18 04:08:16;;;;;;;36.58;16.95;;;;;;;15.75;96.22;92365.31;4840108;29;20053;-93
2021/09/18 04:11:24;;;;;;;33.63;15.30;;;;;;;15.80;96.19;92373.03;4861324;29;20062;-93
2021/09/18 04:14:20;;;;;;;;;;;;;;;;;;;;;
2021/09/18 04:17:38;;;;;;;33.15;14.75;;;;;;;15.62;96.86;92348.59;4857541;29;20486;-93
2021/09/18 04:20:32;;;;;;;25.58;11.82;;;;;;;15.67;97.03;92348.44;4864702;29;20065;-93
2021/09/18 04:23:26;;;;;;;;;;;;;;;;;;;;;
2021/09/18 04:26:23;;;;;;;26.50;13.90;;;;;;;15.79;96.48;92368.84;4861483;29;20118;-94
2021/09/18 04:29:30;;;;;;;;;;;;;;;;;;;;;
2021/09/18 04:35:42;;;;;;;27.27;14.20;;;;;;;15.81;96.50;92379.88;4878275;29;20148;-93
2021/09/18 04:38:30;;;;;;;;;;;;;;;;;;;;;
2021/09/18 04:41:29;;;;;;;;;;;;;;;;;;;;;
2021/09/18 04:44:37;;;;;;;;;;;;;;;;;;;;;
2021/09/18 04:47:51;;;;;;;28.92;14.77;;;;;;;15.84;97.31;92392.41;4880401;29;20045;-94
2021/09/18 04:50:59;;;;;;;;;;;;;;;;;;;;;
2021/09/18 04:54:08;;;;;;;35.20;15.50;;;;;;;15.78;97.54;92385.78;4861100;29;20145;-93
2021/09/18 04:56:44;;;;;;;32.13;15.50;;;;;;;15.72;98.57;92379.16;4830257;29;20080;-92
2021/09/18 04:59:40;;;;;;;30.20;14.88;;;;;;;15.64;98.00;92364.13;4830812;29;20407;-93
2021/09/18 05:02:19;;;;;;;31.60;15.10;;;;;;;15.78;97.76;92396.31;4844700;29;20063;-92
2021/09/18 05:05:05;;;;;;;29.02;14.95;;;;;;;15.57;97.65;92368.03;4860029;29;20492;-93
2021/09/18 05:08:35;;;;;;;37.00;15.90;;;;;;;15.69;97.38;92385.03;4842585;29;20131;-94
2021/09/18 05:11:36;;;;;;;;;;;;;;;15.95;97.36;92424.50;4859464;29;20353;-94
2021/09/18 05:17:46;;;;;;;20.65;7.43;;;;;;;15.53;98.84;92382.94;4826496;29;20514;-93
2021/09/18 05:20:49;;;;;;;12.73;7.45;;;;;;;15.67;100.00;92403.84;4862657;29;20382;-93
2021/09/18 05:23:23;;;;;;;15.93;6.13;;;;;;;15.49;100.00;92387.31;4852740;29;20053;-93
2021/09/18 05:26:24;;;;;;;20.33;9.98;;;;;;;15.74;99.81;92429.75;4842867;29;20052;-92
2021/09/18 05:29:45;;;;;;;19.23;10.07;;;;;;;15.48;99.91;92396.31;4856804;29;20047;-93
2021/09/18 05:32:29;;;;;;;22.65;11.68;;;;;;;15.75;100.00;92433.94;4839826;29;20514;-94
2021/09/18 05:35:42;;;;;;;;;;;;;;;;;;;;;
2021/09/18 05:38:07;;;;;;;30.27;15.20;;;;;;;15.46;100.00;92380.03;4853191;29;20041;-93
2021/09/18 05:41:09;;;;;;;28.50;14.50;;;;;;;15.66;99.75;92402.28;4863229;29;20048;-93
2021/09/18 05:43:59;;;;;;;28.75;15.25;;;;;;;15.55;99.01;92391.31;4850635;29;20049;-95
2021/09/18 05:47:29;;;;;;;20.30;10.80;;;;;;;15.70;98.01;92402.41;4856160;29;20088;-94
2021/09/18 05:50:16;;;;;;;19.67;10.13;;;;;;;15.42;99.35;92392.31;4869473;29;20563;-94
2021/09/18 05:53:37;;;;;;;22.55;11.68;;;;;;;15.56;98.35;92407.94;4862311;29;20071;-94
2021/09/18 05:56:39;;;;;;;19.85;10.73;;;;;;;15.49;99.00;92424.25;4866235;29;20055;-93
2021/09/18 05:59:16;;;;;;;23.17;10.90;;;;;;;15.66;98.86;92449.00;4861496;29;20037;-93
2021/09/18 06:02:42;;;;;;;24.85;11.68;;;;;;;15.39;98.88;92406.91;4845347;29;20121;-93
2021/09/18 06:05:47;;;;;;;;;;;;;;;;;;;;;
2021/09/18 06:08:44;;;;;;;24.77;11.50;;;;;;;15.52;98.95;92402.50;4853878;29;20080;-95
2021/09/18 06:11:45;;;;;;;23.45;11.10;;;;;;;15.44;99.09;92407.81;4858780;29;20407;-93
2021/09/18 06:14:32;;;;;;;27.15;12.52;;;;;;;15.58;99.10;92421.56;4846873;29;20133;-95
2021/09/18 06:17:26;;;;;;;31.42;13.80;;;;;;;15.51;98.86;92405.44;4857542;29;20388;-94
2021/09/18 06:20:08;;;;;;;27.80;13.30;;;;;;;15.68;98.81;92431.75;4856658;29;20049;-94
2021/09/18 06:22:51;;;;;;;22.20;11.07;;;;;;;15.81;99.21;92451.13;4869957;29;20057;-94
2021/09/18 06:25:40;;;;;;;;;;;;;;;;;;;;;
2021/09/18 06:29:07;;;;;;;;;;;;;;;;;;;;;
2021/09/18 06:31:50;;;;;;;23.75;8.82;;;;;;;15.35;100.00;92397.31;4872245;29;20064;-95
2021/09/18 06:35:08;;;;;;;28.10;9.75;;;;;;;15.47;100.00;92417.72;4846176;29;20152;-93
2021/09/18 06:38:21;;;;;;;19.93;7.83;;;;;;;15.39;100.00;92420.09;4857266;29;20045;-94
2021/09/18 06:41:14;;;;;;;;;;;;;;;;;;;;;
2021/09/18 06:44:03;;;;;;;33.92;9.07;;;;;;;15.31;100.00;92420.13;4850547;29;20072;-94
2021/09/18 06:47:00;;;;;;;33.13;10.82;;;;;;;15.24;100.00;92414.56;4808600;29;20050;-92
2021/09/18 06:49:47;;;;;;;24.52;11.15;;;;;;;15.39;100.00;92437.78;4837944;29;20064;-93
2021/09/18 06:52:32;;;;;;;;;;;;;;;;;;;;;
2021/09/18 06:55:45;;;;;;;;;;;;;;;;;;;;;
2021/09/18 06:58:39;;;;;;;34.67;14.10;;;;;;;15.39;100.00;92422.72;4865692;29;20101;-92
2021/09/18 07:01:31;;;;;;;37.80;14.90;;;;;;;15.35;100.00;92405.22;4843665;29;20484;-92
2021/09/18 07:07:38;;;;;;;;;;;;;;;;;;;;;
2021/09/18 07:10:35;;;;;;;;;;;;;;;;;;;;;
2021/09/18 07:13:24;;;;;;;43.17;5.90;;;;;;;15.45;100.00;92428.63;4862598;29;19926;-93
2021/09/18 07:16:13;;;;;;;;;;;;;;;;;;;;;
2021/09/18 07:22:30;;;;;;;;;;;;;;;;;;;;;
2021/09/18 07:25:26;;;;;;;18.98;8.18;;;;;;;15.76;100.00;92478.47;4853946;29;20709;-92
2021/09/18 07:28:12;;;;;;;20.52;10.43;;;;;;;15.47;100.00;92425.63;4850789;29;20049;-92
2021/09/18 07:31:09;;;;;;;24.65;10.80;;;;;;;15.51;100.00;92431.84;4850598;29;20076;-92
2021/09/18 07:34:20;;;;;;;17.67;8.93;;;;;;;15.55;100.00;92436.16;4861289;29;20446;-92
2021/09/18 07:37:33;;;;;;;15.25;7.55;;;;;;;15.83;100.00;92470.06;4855212;29;20565;-89
2021/09/18 07:46:38;;;;;;;14.57;7.65;;;;;;;15.88;99.47;92491.00;4887482;23;20160;-88
2021/09/18 07:49:04;;;;;;;14.40;7.50;;;;;;;15.86;99.55;92485.25;4833349;29;20093;-89
2021/09/18 07:51:29;;;;;;;15.57;8.07;;;;;;;15.91;100.00;92498.25;4863437;29;20445;-89
2021/09/18 07:53:55;;;;;;;23.65;8.48;;;;;;;15.83;100.00;92485.91;4820796;29;20128;-90
2021/09/18 07:56:20;;;;;;;29.92;6.45;;;;;;;15.90;100.00;92495.97;4859342;29;20137;-90
2021/09/18 07:58:46;;;;;;;50.22;4.50;;;;;;;15.83;99.84;92501.75;4844040;29;20408;-88
2021/09/18 08:01:12;;;;;;;94.93;4.75;;;;;;;15.65;100.00;92485.19;4840368;29;20535;-91
2021/09/18 08:03:37;;;;;;;63.05;4.07;;;;;;;15.76;100.00;92501.44;4844885;29;20057;-88
2021/09/18 08:06:04;;;;;;;63.45;3.55;;;;;;;15.74;100.00;92495.72;4848748;29;20056;-89
2021/09/18 08:08:29;;;;;;;41.40;3.72;;;;;;;15.57;100.00;92484.09;4843576;29;20049;-89
2021/09/18 08:10:55;;;;;;;14.20;5.53;;;;;;;15.68;100.00;92510.16;4848054;29;20052;-88
2021/09/18 08:13:21;;;;;;;21.92;3.35;;;;;;;15.58;100.00;92500.69;4861505;29;20059;-89
2021/09/18 08:15:47;;;;;;;13.95;4.30;;;;;;;15.60;100.00;92504.59;4818929;29;20049;-91
2021/09/18 08:18:12;;;;;;;16.33;3.13;;;;;;;15.52;100.00;92502.75;4845853;29;20045;-89
2021/09/18 08:20:38;;;;;;;12.20;6.53;;;;;;;15.62;100.00;92512.94;4859646;29;20372;-89
2021/09/18 08:23:04;;;;;;;10.00;5.95;;;;;;;15.65;100.00;92516.03;4829982;29;20042;-90
2021/09/18 08:25:30;;;;;;;8.50;4.47;;;;;;;15.51;100.00;92495.91;4863550;29;20048;-90
2021/09/18 08:27:56;;;;;;;7.80;4.18;;;;;;;15.58;100.00;92505.97;4845792;29;20045;-91
2021/09/18 08:30:23;;;;;;;6.55;3.55;;;;;;;15.59;100.00;92503.03;4846349;29;20403;-92
2021/09/18 08:32:49;;;;;;;5.97;3.35;;;;;;;15.54;100.00;92497.16;4832219;29;20135;-90
2021/09/18 08:35:15;;;;;;;6.20;3.20;;;;;;;15.51;100.00;92497.78;4845320;29;20147;-90
2021/09/18 08:37:42;;;;;;;6.82;2.85;;;;;;;15.62;100.00;92518.22;4846324;29;20025;-84
2021/09/18 08:40:08;;;;;;;5.45;2.42;;;;;;;15.64;100.00;92511.88;4873484;29;20090;-90
2021/09/18 08:42:38;;;;;;;6.10;3.00;;;;;;;15.74;100.00;92514.97;4837136;29;20041;-90
2021/09/18 08:45:06;;;;;;;5.20;2.85;;;;;;;15.77;100.00;92497.72;4848828;29;20120;-90
2021/09/18 08:47:34;;;;;;;5.30;2.80;;;;;;;15.91;99.95;92503.53;4847221;29;20073;-90
2021/09/18 08:50:00;;;;;;;6.45;3.05;;;;;;;15.98;98.58;92493.25;4878940;29;20559;-90
2021/09/18 08:52:26;;;;;;;22.00;2.80;;;;;;;16.11;99.00;92502.03;4846073;29;20131;-91
2021/09/18 08:54:52;;;;;;;11.70;1.70;;;;;;;16.08;100.00;92494.78;4863278;29;20550;-90
2021/09/18 08:57:18;;;;;;;18.20;2.20;;;;;;;15.97;100.00;92497.00;4845486;29;20562;-90
2021/09/18 08:59:44;;;;;;;4.95;2.13;;;;;;;16.06;99.83;92509.41;4847692;29;20077;-90
2021/09/18 09:02:18;;;;;;;5.32;2.95;;;;;;;15.81;100.00;92493.38;4857608;29;20067;-89
2021/09/18 09:04:46;;;;;;;26.70;2.92;;;;;;;15.75;100.00;92499.91;4877472;29;20052;-95
2021/09/18 09:07:14;;;;;;;16.33;3.35;;;;;;;15.81;100.00;92507.31;4879332;29;20051;-90
2021/09/18 09:09:56;;;;;;;17.67;4.18;;;;;;;15.79;100.00;92511.38;4817570;27;8304934;-79
2021/09/18 09:12:37;;;;;;;11.60;3.78;;;;;;;15.89;100.00;92515.53;5100828;28;20052;-79
2021/09/18 09:15:06;;;;;;;9.02;4.32;;;;;;;15.82;100.00;92503.56;5082455;28;20032;-79
2021/09/18 09:17:36;;;;;;;9.00;5.13;;;;;;;15.87;100.00;92502.63;5092265;28;20408;-81
2021/09/18 09:20:03;;;;;;;29.23;4.72;;;;;;;15.96;100.00;92508.66;5089022;28;20068;-79
2021/09/18 09:22:36;;;;;;;41.60;4.43;;;;;;;16.07;100.00;92510.94;5092867;28;20032;-78
2021/09/18 09:25:03;;;;;;;10.93;5.22;;;;;;;16.15;100.00;92504.84;5091189;28;20055;-80
2021/09/18 09:27:28;;;;;;;9.45;5.13;;;;;;;16.25;100.00;92507.09;5089001;28;20393;-79
2021/09/18 09:29:57;;;;;;;10.55;5.25;;;;;;;16.41;99.97;92513.38;5090623;28;20040;-79
2021/09/18 09:32:33;;;;;;;10.35;5.40;;;;;;;16.53;98.85;92509.25;5095467;28;20032;-79
2021/09/18 09:35:11;;;;;;;9.65;5.00;;;;;;;16.54;95.08;92510.78;5093667;28;20070;-79
2021/09/18 09:37:37;;;;;;;8.63;4.90;;;;;;;16.61;95.13;92509.16;5109366;28;20043;-79
2021/09/18 09:40:06;;;;;;;9.23;4.82;;;;;;;16.74;94.17;92503.97;5095084;28;20029;-79
2021/09/18 09:42:35;;;;;;;12.52;5.82;;;;;;;16.82;93.99;92509.22;5090155;28;20177;-78
2021/09/18 09:45:16;;;;;;;13.80;6.40;;;;;;;16.85;92.83;92508.56;5089667;28;20044;-79
2021/09/18 09:47:43;;;;;;;14.95;7.22;;;;;;;17.01;92.58;92503.44;5092655;28;20181;-81
2021/09/18 09:50:10;;;;;;;11.48;6.43;;;;;;;17.35;92.74;92498.16;5102520;28;20507;-79
2021/09/18 09:52:37;;;;;;;11.90;6.07;;;;;;;17.68;92.88;92503.38;5089016;28;20169;-79
2021/09/18 09:55:14;;;;;;;12.13;5.63;;;;;;;17.98;91.18;92503.22;5101475;28;20121;-79
2021/09/18 09:57:43;;;;;;;11.32;6.47;;;;;;;18.26;90.41;92514.69;5087383;28;20032;-79
2021/09/18 10:00:11;;;;;;;13.35;6.72;;;;;;;18.46;87.28;92507.72;5097066;28;20028;-79
2021/09/18 10:02:38;;;;;;;11.77;6.22;;;;;;;18.58;87.71;92504.25;5102058;28;20123;-80
2021/09/18 10:05:06;;;;;;;12.27;6.40;;;;;;;18.74;87.14;92506.97;5089544;28;20036;-79
2021/09/18 10:07:33;;;;;;;10.35;5.72;;;;;;;18.93;86.21;92501.84;5098353;28;20032;-78
2021/09/18 10:10:00;;;;;;;13.25;6.35;;;;;;;19.17;84.24;92492.25;5117473;28;20047;-79
2021/09/18 10:12:27;;;;;;;13.05;6.22;;;;;;;19.28;80.34;92501.28;5089853;28;20032;-81
2021/09/18 10:14:55;;;;;;;13.02;6.78;;;;;;;18.48;88.28;92502.81;5086019;28;20039;-78
2021/09/18 10:17:22;;;;;;;12.80;6.43;;;;;;;18.63;82.04;92501.38;5086772;28;20485;-79
2021/09/18 10:25:17;;;;;;;11.55;5.63;;;;;;;17.71;92.67;92509.91;5102893;28;20474;-78
2021/09/18 10:28:13;;;;;;;11.70;6.95;;;;;;;18.14;88.60;92501.44;5100510;28;20059;-80
2021/09/18 10:30:48;;;;;;;13.20;6.15;;;;;;;18.02;89.25;92504.88;5084173;28;20409;-80
2021/09/18 10:33:36;;;;;;;21.13;4.32;;;;;;;17.68;93.46;92508.69;5089234;28;20031;-79
2021/09/18 10:36:09;;;;;;;23.58;5.65;;;;;;;17.67;92.47;92512.41;5100260;28;20031;-79
2021/09/18 10:38:38;;;;;;;13.88;7.65;;;;;;;17.77;89.76;92508.59;5118081;28;20028;-80
2021/09/18 10:41:11;;;;;;;13.00;7.45;;;;;;;17.78;90.01;92510.13;5115815;28;20035;-79
2021/09/18 10:43:42;;;;;;;14.63;7.35;;;;;;;17.93;88.52;92512.16;5102692;28;20485;-80
2021/09/18 10:46:33;;;;;;;14.68;7.85;;;;;;;18.13;89.28;92510.50;5082868;28;20046;-81
2021/09/18 10:48:59;;;;;;;14.93;7.20;;;;;;;17.97;90.92;92502.44;5099366;28;20059;-80
2021/09/18 10:51:41;;;;;;;14.45;7.40;;;;;;;17.96;87.93;92503.53;5082252;28;20721;-79
2021/09/18 10:54:10;;;;;;;15.02;7.18;;;;;;;17.57;94.71;92507.56;5090890;28;20035;-81
2021/09/18 10:56:59;;;;;;;15.82;8.45;;;;;;;17.77;92.89;92509.34;5103679;28;20488;-81
2021/09/18 10:59:41;;;;;;;14.80;8.23;;;;;;;17.75;91.65;92516.09;5101732;28;20028;-79
2021/09/18 11:02:26;;;;;;;;;;;;;;;17.37;95.48;92506.53;5089708;28;20058;-81
2021/09/18 11:04:51;;;;;;;13.95;7.28;;;;;;;17.63;93.45;92509.69;5053634;28;20002;-80
2021/09/18 11:09:48;;;;;;;13.55;7.28;;;;;;;17.45;93.44;92503.00;5076202;28;20127;-79
2021/09/18 11:12:15;;;;;;;12.50;7.95;;;;;;;17.54;92.89;92506.34;5117527;28;20032;-79
2021/09/18 11:14:40;;;;;;;17.98;8.50;;;;;;;17.59;93.43;92508.78;5084095;28;20047;-80
2021/09/18 11:17:37;;;;;;;15.75;8.18;;;;;;;17.70;94.71;92517.06;5076550;28;20036;-80
2021/09/18 11:20:17;;;;;;;16.98;8.82;;;;;;;17.81;92.47;92509.44;5076376;28;20553;-80
2021/09/18 11:22:44;;;;;;;14.38;8.27;;;;;;;17.63;92.32;92508.88;5092073;28;20123;-80
2021/09/18 11:25:31;;;;;;;14.57;7.78;;;;;;;17.83;90.75;92508.06;5062660;28;20146;-79
2021/09/18 11:28:04;;;;;;;16.52;8.32;;;;;;;17.72;90.14;92503.50;5088517;28;20035;-81
2021/09/18 11:30:53;;;;;;;18.50;8.63;;;;;;;18.10;89.89;92501.34;5072895;28;20055;-81
2021/09/18 11:33:22;;;;;;;16.13;7.90;;;;;;;18.28;87.12;92495.78;5083812;28;20058;-79
2021/09/18 11:35:55;;;;;;;15.82;8.73;;;;;;;18.56;87.57;92495.09;5091953;28;20044;-80
2021/09/18 11:38:24;;;;;;;14.48;7.75;;;;;;;18.74;85.20;92496.38;5065368;28;20093;-80
2021/09/18 11:40:50;;;;;;;13.70;8.13;;;;;;;18.71;83.40;92499.69;5067106;28;20469;-79
2021/09/18 11:43:25;;;;;;;14.13;7.00;;;;;;;18.88;81.87;92494.13;5073265;28;20046;-80
2021/09/18 11:45:51;;;;;;;14.18;7.32;;;;;;;18.95;80.69;92490.91;5075227;28;20029;-81
2021/09/18 11:48:21;;;;;;;13.30;7.18;;;;;;;18.82;83.31;92492.06;5080927;28;20260;-79
2021/09/18 11:50:47;;;;;;;12.30;6.63;;;;;;;18.85;82.93;92489.50;5068641;28;20099;-80
2021/09/18 11:53:14;;;;;;;12.65;7.30;;;;;;;18.94;82.06;92484.06;5094091;28;20036;-80
2021/09/18 11:55:46;;;;;;;14.55;7.20;;;;;;;18.73;85.17;92490.31;5063965;28;20048;-80
2021/09/18 11:58:19;;;;;;;13.75;7.47;;;;;;;18.26;87.38;92487.41;5094214;28;20032;-81
2021/09/18 12:00:56;;;;;;;16.63;7.07;;;;;;;18.63;84.93;92484.69;5065479;28;20127;-80
2021/09/18 12:03:27;;;;;;;16.50;8.63;;;;;;;18.86;83.64;92487.63;5059526;28;20044;-80
2021/09/18 12:06:04;;;;;;;16.60;9.37;;;;;;;18.89;82.01;92473.69;5090502;28;20032;-80
2021/09/18 12:08:32;;;;;;;14.88;8.80;;;;;;;19.10;82.28;92474.28;5071212;28;20473;-80
2021/09/18 12:11:03;;;;;;;16.00;8.20;;;;;;;19.16;81.71;92471.38;5070325;28;20032;-80
2021/09/18 12:13:29;;;;;;;10.10;6.45;;;;;;;19.03;82.02;92463.47;5072714;28;20042;-80
2021/09/18 12:15:58;;;;;;;12.43;7.32;;;;;;;18.85;81.43;92459.56;5075953;28;20478;-80
2021/09/18 12:18:30;;;;;;;10.18;6.45;;;;;;;18.86;80.47;92459.22;5072479;28;20036;-79
2021/09/18 12:21:03;;;;;;;14.95;7.00;;;;;;;18.62;82.83;92461.94;5060800;28;20036;-77
2021/09/18 12:23:30;;;;;;;15.40;7.68;;;;;;;18.66;83.40;92460.16;5058839;28;20068;-77
2021/09/18 12:26:02;;;;;;;17.08;7.57;;;;;;;18.77;84.83;92458.59;5061390;28;20077;-80
2021/09/18 12:28:29;;;;;;;12.48;7.28;;;;;;;18.92;82.01;92454.47;5064345;28;20033;-79
2021/09/18 12:30:56;;;;;;;17.13;8.38;;;;;;;19.39;80.13;92456.44;5076877;28;20037;-79
2021/09/18 12:33:30;;;;;;;13.65;7.05;;;;;;;20.05;78.30;92449.66;5068093;28;20107;-80
2021/09/18 12:36:06;;;;;;;14.15;7.80;;;;;;;19.81;78.86;92455.94;5068799;28;20120;-79
2021/09/18 12:38:33;;;;;;;11.00;6.80;;;;;;;19.28;81.07;92450.84;5081821;28;20092;-82
2021/09/18 12:41:03;;;;;;;8.95;6.00;;;;;;;19.55;78.42;92449.25;5081730;28;20027;-80
2021/09/18 12:43:29;;;;;;;9.95;6.13;;;;;;;19.64;78.62;92441.09;5087277;28;20124;-79
2021/09/18 12:46:14;;;;;;;13.13;6.22;;;;;;;19.73;79.70;92443.63;5085314;28;20355;-80
2021/09/18 12:48:41;;;;;;;10.52;6.00;;;;;;;20.32;75.81;92437.34;5081761;28;20037;-79
2021/09/18 12:51:19;;;;;;;10.65;6.03;;;;;;;20.46;74.80;92433.44;5083954;28;20052;-80
2021/09/18 12:53:47;;;;;;;9.90;5.53;;;;;;;21.14;72.37;92432.09;5083135;28;20036;-82
2021/09/18 12:56:32;;;;;;;9.40;5.05;;;;;;;20.88;76.18;92430.88;5083927;28;20024;-80
2021/09/18 12:59:12;;;;;;;10.18;6.07;;;;;;;20.27;77.74;92424.31;5093298;28;20028;-80
2021/09/18 13:01:50;;;;;;;10.18;5.65;;;;;;;20.74;75.64;92426.06;5083346;28;20363;-80
2021/09/18 13:04:27;;;;;;;9.32;5.55;;;;;;;20.74;76.59;92423.41;5098868;28;20043;-80
2021/09/18 13:06:58;;;;;;;12.65;6.55;;;;;;;21.15;72.63;92423.78;5101000;28;20036;-80
2021/09/18 13:09:27;;;;;;;9.05;5.10;;;;;;;20.89;76.97;92415.69;5101806;28;20170;-79
2021/09/18 13:12:06;;;;;;;11.20;5.65;;;;;;;20.33;76.74;92417.63;5085959;28;20108;-80
2021/09/18 13:14:34;;;;;;;13.07;6.65;;;;;;;20.56;73.80;92420.41;5077557;28;20036;-79
2021/09/18 13:17:07;;;;;;;10.93;5.63;;;;;;;20.89;73.00;92419.13;5106994;28;20275;-80
2021/09/18 13:19:51;;;;;;;10.52;6.38;;;;;;;20.86;73.95;92411.09;5111561;28;20040;-80
2021/09/18 13:22:34;;;;;;;9.52;5.63;;;;;;;20.95;73.29;92416.94;5065361;28;20037;-80
2021/09/18 13:25:01;;;;;;;10.45;6.22;;;;;;;20.68;73.12;92414.16;5082980;28;20061;-80
2021/09/18 13:27:28;;;;;;;10.85;6.00;;;;;;;20.49;74.87;92409.59;5074902;28;20027;-80
2021/09/18 13:29:56;;;;;;;8.93;5.60;;;;;;;21.06;72.58;92406.50;5124462;28;20046;-79
2021/09/18 13:32:23;;;;;;;10.05;6.53;;;;;;;21.30;72.73;92398.19;5124484;28;20578;-82
2021/09/18 13:34:48;;;;;;;12.50;6.30;;;;;;;21.81;68.76;92402.44;5090275;28;20031;-79
2021/09/18 13:37:15;;;;;;;10.90;5.28;;;;;;;22.03;69.45;92400.84;5103200;28;20095;-80
2021/09/18 13:39:41;;;;;;;8.35;4.60;;;;;;;22.02;70.87;92404.63;5086555;28;20028;-80
2021/09/18 13:42:10;;;;;;;10.63;5.40;;;;;;;21.81;68.37;92405.84;5085673;28;20032;-80
2021/09/18 13:44:36;;;;;;;10.23;5.57;;;;;;;21.85;69.44;92395.28;5110340;28;20062;-82
2021/09/18 13:47:02;;;;;;;9.75;5.05;;;;;;;21.65;72.34;92394.59;5090104;28;20044;-80
2021/09/18 13:49:27;;;;;;;13.80;5.38;;;;;;;21.11;71.01;92390.25;5120863;28;20027;-80
2021/09/18 13:51:53;;;;;;;10.15;6.03;;;;;;;21.20;71.33;92393.44;5097923;28;20039;-80
2021/09/18 13:54:19;;;;;;;9.02;5.25;;;;;;;21.62;70.38;92395.31;5081590;28;20091;-79
2021/09/18 13:56:45;;;;;;;11.10;5.95;;;;;;;21.59;69.22;92390.69;5126047;28;20122;-77
2021/09/18 13:59:11;;;;;;;9.48;5.35;;;;;;;21.14;72.31;92379.69;5088875;28;20028;-76
2021/09/18 14:01:37;;;;;;;11.38;5.93;;;;;;;21.14;72.21;92392.19;5054663;28;20093;-76
2021/09/18 14:04:04;;;;;;;10.90;6.13;;;;;;;21.42;70.40;92395.38;5073920;28;20047;-75
2021/09/18 14:06:30;;;;;;;12.07;6.25;;;;;;;21.32;70.70;92393.28;5056162;28;20036;-74
2021/09/18 14:08:56;;;;;;;9.75;6.20;;;;;;;20.35;74.23;92388.81;5067006;28;20048;-75
2021/09/18 14:11:21;;;;;;;11.27;6.45;;;;;;;20.81;73.30;92377.56;5029886;28;20073;-75
2021/09/18 14:13:47;;;;;;;11.57;6.70;;;;;;;21.07;70.91;92379.53;5047326;28;20045;-76
2021/09/18 14:16:13;;;;;;;15.73;5.55;;;;;;;20.70;71.38;92381.91;5036767;28;20075;-76
2021/09/18 14:18:39;;;;;;;15.60;6.97;;;;;;;21.41;70.18;92379.75;5053316;28;20522;-76
2021/09/18 14:21:07;;;;;;;10.85;5.80;;;;;;;21.57;70.81;92371.63;5031511;28;20087;-76
2021/09/18 14:23:33;;;;;;;13.27;6.57;;;;;;;21.48;69.97;92371.09;5055787;28;20037;-77
2021/09/18 14:25:58;;;;;;;12.57;6.28;;;;;;;20.83;74.31;92369.19;5058688;28;20101;-77
2021/09/18 14:28:25;;;;;;;11.82;5.25;;;;;;;20.38;75.32;92371.41;5053379;28;20044;-76
2021/09/18 14:30:52;;;;;;;13.10;7.00;;;;;;;20.83;74.39;92369.19;5049164;28;20033;-76
2021/09/18 14:33:18;;;;;;;10.90;6.55;;;;;;;21.04;73.82;92361.63;5054948;28;20031;-76
2021/09/18 14:35:44;;;;;;;12.32;6.85;;;;;;;21.07;73.74;92365.47;5054688;28;20052;-77
2021/09/18 14:38:10;;;;;;;12.65;7.10;;;;;;;21.51;72.26;92359.75;5061147;28;20021;-77
2021/09/18 14:40:36;;;;;;;12.20;6.65;;;;;;;20.46;73.23;92362.41;5077419;28;20043;-77
2021/09/18 14:43:02;;;;;;;11.82;7.05;;;;;;;20.34;76.34;92362.56;5079096;28;20035;-77
2021/09/18 14:45:28;;;;;;;15.77;8.10;;;;;;;20.56;75.13;92361.91;5079612;28;20119;-77
2021/09/18 14:47:54;;;;;;;13.40;7.03;;;;;;;20.70;76.12;92361.41;5066036;28;20033;-78
2021/09/18 14:50:20;;;;;;;14.63;7.45;;;;;;;20.72;75.00;92361.06;5005877;28;20407;-78
2021/09/18 14:52:45;;;;;;;13.63;7.40;;;;;;;21.46;72.94;92357.38;5033893;28;20029;-76
2021/09/18 14:55:11;;;;;;;14.55;7.35;;;;;;;21.44;72.29;92359.66;5033546;28;20030;-77
2021/09/18 14:57:37;;;;;;;9.77;5.63;;;;;;;20.93;73.64;92352.69;5043991;28;20435;-77
2021/09/18 15:00:07;;;;;;;13.40;7.20;;;;;;;20.85;73.46;92358.97;5042964;28;20041;-77
2021/09/18 15:02:32;;;;;;;12.18;7.03;;;;;;;20.39;77.23;92351.66;5040007;28;20172;-79
2021/09/18 15:04:58;;;;;;;15.23;6.82;;;;;;;20.51;77.17;92348.88;5036254;28;20112;-75
2021/09/18 15:07:24;;;;;;;13.77;7.05;;;;;;;20.27;76.39;92344.59;5036675;28;20060;-75